• Join FlightAware (Why Join?)
  • Login
  • US Flag 
04:10AM EST


 

Airport Tracker/Info


-or-


 

Live Flight TrackerFlight Track Log ✈ EJA658 ✈ 21-Apr-2013 ✈ KCGF - KBDL

Flight Track Log - Related Links

Times and Time Zones

All times are in EDT time to prevent confusion due to time zone crossing. See the EJA658 flight status page for this flight to view local times or setup timezone preferences in your user account.

Time Position Orientation Groundspeed Altitude Reporting Facility
EDT Latitude Longitude Course Direction KTS MPH feet Rate Location/Type
10:33AM 41.5750 -81.4742 12° North 165 190 1,900  Level Cleveland Center
10:34AM 41.6481 -81.4528 12° North 264 304 5,600 3,234 Climbing Cleveland Center
10:35AM 41.7150 -81.4428 North 244 281 9,500 3,700 Climbing Cleveland Center
10:36AM 41.7858 -81.4297 North 254 292 13,000 3,750 Climbing Cleveland Center
10:37AM 41.8489 -81.3581 40° Northeast 296 341 17,000 3,550 Climbing Cleveland Center
10:38AM 41.8686 -81.2328 78° East 320 368 20,100 3,150 Climbing Cleveland Center
10:39AM 41.8900 -81.0964 78° East 345 397 23,300 1,950 Climbing Cleveland Center
10:40AM 41.9156 -80.9431 77° East 399 459 24,000 350 Climbing Cleveland Center
10:41AM 41.9431 -80.7647 78° East 439 505 24,000 400 Level Cleveland Center
10:42AM 41.9703 -80.5917 78° East 455 524 24,800 1,400 Climbing Cleveland Center
10:43AM 41.9975 -80.4267 77° East 455 524 26,800 2,100 Climbing Cleveland Center
10:44AM 42.0219 -80.2561 79° East 460 529 29,000 2,200 Climbing Cleveland Center
10:45AM 42.0486 -80.0856 78° East 460 529 31,200 2,200 Climbing Cleveland Center
10:46AM 42.0769 -79.9089 78° East 473 544 33,400 2,100 Climbing Cleveland Center
10:47AM 42.0967 -79.7606 80° East 468 539 35,400 2,100 Climbing Cleveland Center
10:48AM 42.1206 -79.5950 79° East 462 532 37,600 2,000 Climbing Cleveland Center
10:49AM 42.1461 -79.4322 78° East 457 526 39,400 1,650 Climbing Cleveland Center
10:50AM 42.1672 -79.2722 80° East 440 506 40,900 800 Climbing Cleveland Center
10:51AM 42.1922 -79.1064 78° East 440 506 41,000 50 Climbing Cleveland Center
10:52AM 42.2128 -78.9319 81° East 455 524 41,000  Level Cleveland Center
10:53AM 42.2392 -78.7378 80° East 468 539 41,000  Level Cleveland Center
10:54AM 42.2611 -78.5575 81° East 473 544 41,000  Level Cleveland Center
10:55AM 42.2850 -78.3800 80° East 479 551 41,000  Level Cleveland Center
10:56AM 42.3044 -78.2053 81° East 479 551 41,000  Level Cleveland Center
10:57AM 42.3275 -78.0244 80° East 484 557 41,000  Level Cleveland Center
10:58AM 42.3486 -77.8467 81° East 484 557 41,000  Level Cleveland Center
10:59AM 42.3672 -77.6689 82° East 484 557 41,000 -400 Level Cleveland Center
11:00AM 42.3875 -77.4936 81° East 484 557 40,200 -1,000 Descending Cleveland Center
11:01AM 42.4078 -77.3181 81° East 478 550 39,000 -1,450 Descending Cleveland Center
11:02AM 42.4261 -77.1597 81° East 472 543 37,300 -1,548 Descending Cleveland Center
11:04AM 42.4575 -76.8786 81° East 505 581 35,000 -890 Descending Boston Center
11:05AM 42.4747 -76.6969 83° East 493 567 35,000  Level Boston Center
11:06AM 42.4939 -76.5178 82° East 488 562 35,000  Level Boston Center
11:07AM 42.5150 -76.3361 81° East 488 562 35,000 -300 Level Boston Center
11:08AM 42.5336 -76.1542 82° East 483 556 34,400 -1,150 Descending Boston Center
11:09AM 42.5517 -75.9747 82° East 483 556 32,700 -1,650 Descending Boston Center
11:10AM 42.5469 -75.7911 92° East 477 549 31,100 -1,550 Descending Boston Center
11:11AM 42.5186 -75.6122 102° East 477 549 29,600 -1,500 Descending Boston Center
11:12AM 42.4944 -75.4306 100° East 488 562 28,100 -1,500 Descending Boston Center
11:13AM 42.4700 -75.2492 100° East 488 562 26,600 -1,500 Descending Boston Center
11:14AM 42.4681 -75.0633 91° East 488 562 25,100 -1,500 Descending Boston Center
11:15AM 42.4742 -74.8778 87° East 483 556 23,600 -1,650 Descending Boston Center
11:16AM 42.4783 -74.6808 88° East 477 549 21,800 -1,650 Descending Boston Center
11:17AM 42.4817 -74.5064 88° East 471 542 20,300 -1,500 Descending Boston Center
11:18AM 42.4825 -74.3347 90° East 460 529 18,800 -1,100 Descending Boston Center
11:19AM 42.4850 -74.1856 89° East 442 509 18,100 -900 Descending Boston Center
11:20AM 42.4875 -74.0111 89° East 428 493 17,000 -550 Descending Boston Center
11:21AM 42.4894 -73.8647 89° East 423 487 17,000  Level Boston Center
11:22AM 42.4917 -73.6761 89° East 433 498 17,000 -62 Level Boston Center
11:22AM 42.4883 -73.6028 94° East 431 496 16,900  Descending Boston Center
11:23AM 42.4931 -73.5467 83° East 417 480 17,000 -500 Climbing Boston Center
11:23AM 42.4711 -73.4336 105° East 425 489 16,400 -1,400 Descending Boston Center
11:24AM 42.4486 -73.3883 124° Southeast 406 467 15,600 -2,066 Descending Boston Center
11:24AM 42.3992 -73.3228 136° Southeast 401 461 14,300 -1,900 Descending Boston Center
11:25AM 42.3806 -73.2944 132° Southeast 393 452 13,700 -1,967 Descending Boston Center
11:25AM 42.3206 -73.2292 141° Southeast 373 429 12,300 -2,000 Descending Boston Center
11:26AM 42.2936 -73.1950 137° Southeast 371 427 11,700 -1,111 Descending Boston Center
11:27AM 42.2131 -73.1128 143° Southeast 366 421 10,800 -1,010 Descending Boston Center
11:27AM 42.1611 -73.0619 144° Southeast 357 411 10,000 -1,444 Descending Boston Center
11:29AM 42.0864 -72.9800 141° Southeast 300 345 8,200 -1,820 Descending Boston Center
11:29AM 42.0306 -72.9181 141° Southeast 273 314 6,300 -1,655 Descending Boston Center
11:30AM 41.9850 -72.8533 133° Southeast 246 283 5,000 -609 Descending Boston Center
11:32AM 41.9350 -72.7889 136° Southeast 215 247 5,000 -47 Level Boston Center
11:33AM 41.8936 -72.7386 138° Southeast 212 244 4,900 -492 Descending Boston Center
11:34AM 41.8478 -72.6908 142° Southeast 206 237 4,000 -689 Descending Boston Center
11:35AM 41.8000 -72.6461 145° Southeast 192 221 3,500 -492 Descending Boston Center
11:36AM 41.7958 -72.5961 96° East 171 197 3,000 -689 Descending Boston Center
11:37AM 41.8375 -72.5961 360° North 166 191 2,100 -885 Descending Boston Center